createdAt,value
2017-05-16T00:01:34.324Z,2.20
2017-05-16T00:04:03.408Z,2.36
2017-05-16T00:06:32.499Z,2.02
2017-05-16T00:09:01.575Z,2.48
2017-05-16T00:11:30.648Z,2.72
2017-05-16T00:14:00.649Z,2.22
2017-05-16T00:16:29.735Z,2.20
2017-05-16T00:18:58.848Z,2.42
2017-05-16T00:21:28.659Z,2.34
2017-05-16T00:23:57.748Z,2.62
2017-05-16T00:26:26.834Z,2.80
2017-05-16T00:28:55.904Z,2.22
2017-05-16T00:31:24.969Z,2.08
2017-05-16T00:33:54.377Z,2.70
2017-05-16T00:36:23.438Z,2.26
2017-05-16T00:38:52.507Z,2.62
2017-05-16T00:41:21.586Z,2.34
2017-05-16T00:43:50.898Z,2.18
2017-05-16T00:46:19.959Z,2.00
2017-05-16T00:48:49.378Z,2.78
2017-05-16T00:51:18.484Z,2.18
2017-05-16T00:53:47.738Z,2.02
2017-05-16T00:56:17.545Z,2.22
2017-05-16T00:58:47.516Z,2.24
2017-05-16T01:01:16.598Z,1.90
2017-05-16T01:03:45.663Z,1.78
2017-05-16T01:06:15.479Z,2.12
2017-05-16T01:08:44.584Z,2.44
2017-05-16T01:11:13.676Z,1.96
2017-05-16T01:13:42.744Z,2.40
2017-05-16T01:16:12.585Z,1.70
2017-05-16T01:18:41.659Z,1.80
2017-05-16T01:21:11.549Z,2.20
2017-05-16T01:23:40.652Z,2.16
2017-05-16T01:26:09.747Z,2.30
2017-05-16T01:28:39.059Z,2.50
2017-05-16T01:31:08.880Z,2.34
2017-05-16T01:33:38.706Z,2.42
2017-05-16T01:36:07.775Z,2.20
2017-05-16T01:38:36.858Z,2.40
2017-05-16T01:41:05.934Z,1.98
2017-05-16T01:43:35.007Z,1.72
2017-05-16T01:46:04.090Z,2.66
2017-05-16T01:48:33.380Z,2.58
2017-05-16T01:51:03.220Z,2.22
2017-05-16T01:53:32.296Z,2.02
2017-05-16T01:56:01.398Z,2.32
2017-05-16T01:58:30.512Z,2.32
2017-05-16T02:00:59.617Z,2.22
2017-05-16T02:03:28.703Z,2.42
2017-05-16T02:05:57.785Z,2.38
2017-05-16T02:08:26.863Z,2.60
2017-05-16T02:10:55.936Z,1.72
2017-05-16T02:13:25.005Z,2.12
2017-05-16T02:15:54.849Z,2.02
2017-05-16T02:18:24.672Z,1.80
2017-05-16T02:20:54.483Z,2.00
2017-05-16T02:23:24.307Z,2.32
2017-05-16T02:25:53.395Z,2.14
2017-05-16T02:28:23.208Z,2.70
2017-05-16T02:30:53.046Z,1.98
2017-05-16T02:33:22.112Z,2.40
2017-05-16T02:35:52.107Z,2.26
2017-05-16T02:38:21.196Z,2.26
2017-05-16T02:40:50.258Z,2.00
2017-05-16T02:43:19.602Z,2.38
2017-05-16T02:45:48.965Z,2.50
2017-05-16T02:48:18.048Z,2.38
2017-05-16T02:50:47.143Z,2.66
2017-05-16T02:53:16.201Z,2.58
2017-05-16T02:55:46.011Z,2.56
2017-05-16T02:58:15.116Z,2.14
2017-05-16T03:00:44.928Z,2.22
2017-05-16T03:03:14.742Z,2.38
2017-05-16T03:05:44.547Z,2.12
2017-05-16T03:08:14.420Z,2.66
2017-05-16T03:10:43.506Z,2.64
2017-05-16T03:13:12.571Z,2.18
2017-05-16T03:15:41.653Z,2.62
2017-05-16T03:18:11.455Z,2.38
2017-05-16T03:20:40.524Z,2.82
2017-05-16T03:23:09.612Z,2.28
2017-05-16T03:25:38.825Z,2.02
2017-05-16T03:28:07.891Z,2.60
2017-05-16T03:30:36.962Z,2.30
2017-05-16T03:33:06.062Z,2.82
2017-05-16T03:35:35.293Z,2.36
2017-05-16T03:38:04.375Z,2.54
2017-05-16T03:40:33.560Z,2.74
2017-05-16T03:43:02.636Z,2.52
2017-05-16T03:45:31.760Z,2.38
2017-05-16T03:48:00.840Z,2.60
2017-05-16T03:50:29.915Z,2.42
2017-05-16T03:52:59.755Z,2.00
2017-05-16T03:55:28.842Z,2.82
2017-05-16T03:57:57.919Z,2.54
2017-05-16T04:00:27.735Z,2.42
2017-05-16T04:02:57.560Z,2.88
2017-05-16T04:05:26.624Z,2.20
2017-05-16T04:07:55.708Z,2.50
2017-05-16T04:10:24.831Z,2.22
2017-05-16T04:12:54.649Z,2.54
2017-05-16T04:15:23.727Z,2.10
2017-05-16T04:17:52.815Z,2.54
2017-05-16T04:20:21.880Z,2.24
2017-05-16T04:22:51.391Z,2.10
2017-05-16T04:25:20.473Z,2.42
2017-05-16T04:27:49.557Z,2.62
2017-05-16T04:30:18.631Z,2.78
2017-05-16T04:32:48.757Z,2.72
2017-05-16T04:35:17.837Z,2.08
2017-05-16T04:37:47.666Z,2.40
2017-05-16T04:40:16.753Z,2.52
2017-05-16T04:42:46.568Z,2.26
2017-05-16T04:45:16.395Z,3.12
2017-05-16T04:47:45.475Z,2.60
2017-05-16T04:50:15.307Z,2.30
2017-05-16T04:52:44.371Z,2.34
2017-05-16T04:55:14.215Z,2.34
2017-05-16T04:57:43.295Z,2.20
2017-05-16T05:00:13.127Z,2.46
2017-05-16T05:02:42.229Z,1.96
2017-05-16T05:05:11.307Z,2.16
2017-05-16T05:07:40.392Z,2.22
2017-05-16T05:10:09.491Z,2.40
2017-05-16T05:12:38.564Z,2.26
2017-05-16T05:15:07.675Z,2.18
2017-05-16T05:17:37.523Z,2.10
2017-05-16T05:20:06.602Z,2.54
2017-05-16T05:22:35.716Z,2.94
2017-05-16T05:25:04.828Z,2.08
2017-05-16T05:27:33.895Z,2.38
2017-05-16T05:30:02.968Z,2.62
2017-05-16T05:32:32.800Z,2.48
2017-05-16T05:35:01.951Z,2.00
2017-05-16T05:37:31.039Z,1.98
2017-05-16T05:40:01.317Z,2.20
2017-05-16T05:42:30.376Z,2.02
2017-05-16T05:44:59.463Z,2.12
2017-05-16T05:47:28.533Z,2.10
2017-05-16T05:49:58.044Z,2.28
2017-05-16T05:52:27.134Z,1.96
2017-05-16T05:54:56.225Z,1.70
2017-05-16T05:57:25.300Z,2.34
2017-05-16T05:59:54.636Z,2.02
2017-05-16T06:02:23.713Z,2.10
2017-05-16T06:04:52.815Z,2.22
2017-05-16T06:07:21.912Z,1.86
2017-05-16T06:09:51.111Z,2.02
2017-05-16T06:12:20.239Z,1.94
2017-05-16T06:14:49.864Z,2.10
2017-05-16T06:17:18.950Z,2.08
2017-05-16T06:19:48.276Z,1.82
2017-05-16T06:22:17.371Z,2.14
2017-05-16T06:24:46.503Z,2.30
2017-05-16T06:27:15.596Z,2.22
2017-05-16T06:29:44.701Z,2.40
2017-05-16T06:32:13.784Z,3.00
2017-05-16T06:34:42.982Z,2.46
2017-05-16T06:37:12.046Z,2.16
2017-05-16T06:39:41.154Z,2.12
2017-05-16T06:42:10.219Z,2.10
2017-05-16T06:44:41.115Z,2.28
2017-05-16T06:47:10.183Z,1.78
2017-05-16T06:49:39.315Z,1.88
2017-05-16T06:52:08.433Z,1.90
2017-05-16T06:54:37.543Z,2.22
2017-05-16T06:57:06.673Z,2.36
2017-05-16T06:59:35.736Z,2.20
2017-05-16T07:02:05.570Z,2.38
2017-05-16T07:04:34.832Z,2.18
2017-05-16T07:07:04.005Z,1.90
2017-05-16T07:09:33.083Z,2.52
2017-05-16T07:12:02.184Z,2.32
2017-05-16T07:14:31.256Z,2.54
2017-05-16T07:17:00.344Z,2.00
2017-05-16T07:19:29.413Z,2.62
2017-05-16T07:21:59.228Z,3.20
2017-05-16T07:24:29.048Z,2.34
2017-05-16T07:26:58.847Z,2.40
2017-05-16T07:29:27.916Z,2.88
2017-05-16T07:31:57.004Z,2.36
2017-05-16T07:34:26.399Z,2.40
2017-05-16T07:36:55.506Z,2.68
2017-05-16T07:39:24.616Z,2.88
2017-05-16T07:41:53.691Z,2.20
2017-05-16T07:44:22.773Z,2.12
2017-05-16T07:46:52.277Z,2.70
2017-05-16T07:49:21.353Z,2.80
2017-05-16T07:51:52.088Z,2.44
2017-05-16T07:54:21.168Z,2.28
2017-05-16T07:56:50.531Z,2.10
2017-05-16T07:59:20.604Z,2.22
2017-05-16T08:01:50.611Z,2.00
2017-05-16T08:04:19.703Z,2.78
2017-05-16T08:06:49.024Z,3.10
2017-05-16T08:09:18.139Z,2.28
2017-05-16T08:11:47.307Z,2.06
2017-05-16T08:14:16.391Z,2.68
2017-05-16T08:16:46.281Z,3.02
2017-05-16T08:19:15.377Z,3.38
2017-05-16T08:21:44.488Z,1.90
2017-05-16T08:24:14.316Z,3.10
2017-05-16T08:26:43.448Z,2.40
2017-05-16T08:29:12.558Z,2.72
2017-05-16T08:31:42.245Z,2.34
2017-05-16T08:34:11.318Z,2.18
2017-05-16T08:36:41.088Z,2.48
2017-05-16T08:39:10.174Z,2.20
2017-05-16T08:41:39.239Z,2.32
2017-05-16T08:44:08.365Z,2.00
2017-05-16T08:46:37.449Z,2.58
2017-05-16T08:49:06.534Z,2.70
2017-05-16T08:51:35.626Z,2.16
2017-05-16T08:54:04.688Z,1.90
2017-05-16T08:56:34.567Z,1.96
2017-05-16T08:59:03.666Z,2.28
2017-05-16T09:01:32.974Z,1.92
2017-05-16T09:04:02.738Z,2.30
2017-05-16T09:06:31.832Z,2.12
2017-05-16T09:09:01.738Z,2.16
2017-05-16T09:11:31.412Z,1.88
2017-05-16T09:14:00.493Z,2.08
2017-05-16T09:16:29.588Z,1.84
2017-05-16T09:18:58.651Z,2.30
2017-05-16T09:21:27.721Z,2.60
2017-05-16T09:23:57.007Z,2.48
2017-05-16T09:26:26.076Z,2.00
2017-05-16T09:28:55.156Z,1.96
2017-05-16T09:31:24.237Z,2.44
2017-05-16T09:33:53.840Z,1.74
2017-05-16T09:36:22.938Z,2.00
2017-05-16T09:38:52.296Z,2.20
2017-05-16T09:41:21.394Z,1.90
2017-05-16T09:43:50.562Z,1.82
2017-05-16T09:46:19.665Z,2.26
2017-05-16T09:48:49.023Z,1.80
2017-05-16T09:51:18.125Z,1.74
2017-05-16T09:53:47.196Z,1.50
2017-05-16T09:56:16.304Z,1.72
2017-05-16T09:58:45.375Z,1.80
2017-05-16T10:01:14.673Z,1.88
2017-05-16T10:03:43.778Z,1.64
2017-05-16T10:06:12.840Z,1.80
2017-05-16T10:08:41.914Z,1.92
2017-05-16T10:11:11.028Z,2.06
2017-05-16T10:13:40.108Z,2.02
2017-05-16T10:16:09.197Z,1.54
2017-05-16T10:18:38.290Z,1.80
2017-05-16T10:21:07.389Z,1.90
2017-05-16T10:23:36.477Z,1.76
2017-05-16T10:26:05.556Z,1.38
2017-05-16T10:28:34.637Z,1.58
2017-05-16T10:31:03.723Z,1.74
2017-05-16T10:33:32.797Z,1.70
2017-05-16T10:38:30.015Z,2.02
2017-05-16T10:40:59.108Z,1.50
2017-05-16T10:43:29.333Z,1.98
2017-05-16T10:45:58.656Z,1.56
2017-05-16T10:48:27.769Z,2.10
2017-05-16T10:50:56.847Z,1.80
2017-05-16T10:53:25.906Z,1.80
2017-05-16T10:55:55.008Z,1.76
2017-05-16T10:58:24.081Z,2.00
2017-05-16T11:00:53.188Z,1.96
2017-05-16T11:03:22.273Z,1.64
2017-05-16T11:05:51.344Z,1.78
2017-05-16T11:08:20.476Z,2.52
2017-05-16T11:10:49.730Z,1.40
2017-05-16T11:13:18.858Z,2.00
2017-05-16T11:15:48.032Z,1.90
2017-05-16T11:18:17.157Z,1.44
2017-05-16T11:20:46.241Z,1.52
2017-05-16T11:23:15.336Z,1.60
2017-05-16T11:25:44.604Z,1.38
2017-05-16T11:28:13.731Z,1.50
2017-05-16T11:30:42.841Z,1.80
2017-05-16T11:33:11.924Z,1.70
2017-05-16T11:35:41.196Z,1.66
2017-05-16T11:38:10.282Z,1.62
2017-05-16T11:40:39.357Z,1.64
2017-05-16T11:43:08.439Z,1.52
2017-05-16T11:45:37.695Z,1.72
2017-05-16T11:48:06.788Z,1.62
2017-05-16T11:50:35.960Z,1.48
2017-05-16T11:53:05.064Z,2.48
2017-05-16T11:55:34.135Z,1.66
2017-05-16T11:58:03.221Z,1.94
2017-05-16T12:00:32.302Z,1.90
2017-05-16T12:03:02.136Z,1.46
2017-05-16T12:05:31.224Z,2.06
2017-05-16T12:08:00.355Z,1.76
2017-05-16T12:10:29.605Z,1.78
2017-05-16T12:12:59.423Z,2.00
2017-05-16T12:15:28.488Z,1.76
2017-05-16T12:17:57.571Z,2.00
2017-05-16T12:20:26.639Z,2.04
2017-05-16T12:22:56.327Z,2.08
2017-05-16T12:25:25.427Z,2.38
2017-05-16T12:27:54.499Z,2.08
2017-05-16T12:30:24.350Z,1.86
2017-05-16T12:32:53.432Z,1.78
2017-05-16T12:35:22.533Z,2.30
2017-05-16T12:37:52.009Z,2.00
2017-05-16T12:40:22.321Z,2.22
2017-05-16T12:42:52.324Z,2.48
2017-05-16T12:45:21.416Z,1.50
2017-05-16T12:47:50.506Z,2.10
2017-05-16T12:50:19.597Z,2.14
2017-05-16T12:52:48.975Z,2.42
2017-05-16T12:55:18.061Z,1.86
2017-05-16T12:57:47.154Z,2.44
2017-05-16T13:00:16.250Z,1.78
2017-05-16T13:02:45.314Z,1.94
2017-05-16T13:05:15.143Z,2.10
2017-05-16T13:07:44.624Z,2.04
2017-05-16T13:10:13.717Z,1.90
2017-05-16T13:12:43.645Z,1.90
2017-05-16T13:15:13.721Z,2.66
2017-05-16T13:17:42.800Z,1.98
2017-05-16T13:20:11.974Z,2.06
2017-05-16T13:22:41.074Z,2.44
2017-05-16T13:25:10.487Z,1.90
2017-05-16T13:27:39.576Z,2.22
2017-05-16T13:30:09.671Z,2.26
2017-05-16T13:32:39.488Z,1.94
2017-05-16T13:35:09.322Z,1.78
2017-05-16T13:37:38.426Z,2.00
2017-05-16T13:40:07.511Z,2.08
2017-05-16T13:42:36.617Z,1.84
2017-05-16T13:45:05.684Z,1.94
2017-05-16T13:47:35.500Z,1.84
2017-05-16T13:50:05.315Z,2.10
2017-05-16T13:52:34.402Z,2.04
2017-05-16T13:55:04.268Z,2.02
2017-05-16T13:57:33.364Z,2.02
2017-05-16T14:00:02.435Z,2.24
2017-05-16T14:02:31.513Z,2.10
2017-05-16T14:05:00.588Z,2.46
2017-05-16T14:07:30.441Z,2.24
2017-05-16T14:09:59.525Z,1.92
2017-05-16T14:12:28.603Z,2.34
2017-05-16T14:14:58.570Z,1.98
2017-05-16T14:17:27.660Z,1.92
2017-05-16T14:19:56.735Z,1.78
2017-05-16T14:22:25.840Z,2.00
2017-05-16T14:24:54.942Z,1.80
2017-05-16T14:27:24.012Z,2.00
2017-05-16T14:29:53.090Z,2.10
2017-05-16T14:32:22.911Z,1.90
2017-05-16T14:34:52.752Z,1.98
2017-05-16T14:37:21.827Z,2.42
2017-05-16T14:39:50.944Z,1.96
2017-05-16T14:42:20.056Z,1.92
2017-05-16T14:44:49.124Z,1.70
2017-05-16T14:47:18.235Z,2.24
2017-05-16T14:49:47.313Z,2.12
2017-05-16T14:52:16.406Z,1.86
2017-05-16T14:54:45.513Z,1.94
2017-05-16T14:57:14.589Z,1.90
2017-05-16T14:59:43.664Z,2.08
2017-05-16T15:02:13.484Z,2.52
2017-05-16T15:04:43.356Z,2.08
2017-05-16T15:07:12.459Z,2.18
2017-05-16T15:09:41.552Z,1.98
2017-05-16T15:12:10.913Z,1.98
2017-05-16T15:14:40.025Z,2.08
2017-05-16T15:17:09.093Z,2.08
2017-05-16T15:19:38.196Z,2.40
2017-05-16T15:22:07.504Z,2.46
2017-05-16T15:24:36.592Z,2.28
2017-05-16T15:27:05.736Z,2.50
2017-05-16T15:29:34.804Z,2.20
2017-05-16T15:32:03.869Z,1.96
2017-05-16T15:34:33.726Z,2.16
2017-05-16T15:37:02.787Z,2.32
2017-05-16T15:39:31.862Z,2.52
2017-05-16T15:42:01.210Z,2.08
2017-05-16T15:44:30.310Z,2.16
2017-05-16T15:46:59.374Z,2.36
2017-05-16T15:49:28.501Z,2.68
2017-05-16T15:51:57.700Z,1.80
2017-05-16T15:54:26.784Z,2.30
2017-05-16T15:56:55.905Z,2.42
2017-05-16T15:59:24.975Z,2.26
2017-05-16T16:01:54.056Z,2.58
2017-05-16T16:04:23.159Z,2.40
2017-05-16T16:06:52.355Z,2.22
2017-05-16T16:09:21.525Z,2.26
2017-05-16T16:11:51.911Z,2.20
2017-05-16T16:14:21.006Z,2.14
2017-05-16T16:16:50.113Z,2.22
2017-05-16T16:19:19.244Z,2.36
2017-05-16T16:21:49.069Z,2.66
2017-05-16T16:24:18.155Z,2.50
2017-05-16T16:26:47.972Z,2.38
2017-05-16T16:29:17.086Z,2.36
2017-05-16T16:31:46.225Z,1.80
2017-05-16T16:34:15.305Z,2.06
2017-05-16T16:36:44.400Z,2.70
2017-05-16T16:39:13.504Z,2.72
2017-05-16T16:41:42.573Z,2.56
2017-05-16T16:44:11.673Z,2.74
2017-05-16T16:46:40.744Z,2.58
2017-05-16T16:49:09.821Z,2.60
2017-05-16T16:51:39.632Z,2.64
2017-05-16T16:54:09.436Z,2.38
2017-05-16T16:56:38.624Z,2.20
2017-05-16T16:59:07.667Z,2.74
2017-05-16T17:01:36.718Z,2.34
2017-05-16T17:04:05.813Z,2.14
2017-05-16T17:06:34.882Z,2.26
2017-05-16T17:09:03.958Z,2.36
2017-05-16T17:11:33.063Z,2.40
2017-05-16T17:14:02.117Z,2.32
2017-05-16T17:16:31.917Z,2.00
2017-05-16T17:19:01.011Z,2.40
2017-05-16T17:21:30.091Z,2.28
2017-05-16T17:23:59.165Z,2.30
2017-05-16T17:26:28.240Z,2.40
2017-05-16T17:28:57.389Z,2.00
2017-05-16T17:31:26.487Z,2.40
2017-05-16T17:33:55.551Z,1.96
2017-05-16T17:36:24.657Z,2.18
2017-05-16T17:38:53.724Z,1.98
2017-05-16T17:41:23.637Z,2.12
2017-05-16T17:43:52.942Z,2.18
2017-05-16T17:46:21.993Z,2.00
2017-05-16T17:48:51.792Z,2.90
2017-05-16T17:51:20.848Z,1.98
2017-05-16T17:53:49.891Z,2.10
2017-05-16T17:56:19.687Z,2.02
2017-05-16T17:58:48.985Z,2.04
2017-05-16T18:01:18.057Z,1.80
2017-05-16T18:03:48.001Z,2.02
2017-05-16T18:06:17.053Z,2.18
2017-05-16T18:08:46.750Z,2.14
2017-05-16T18:11:15.834Z,2.06
2017-05-16T18:13:45.069Z,2.10
2017-05-16T18:16:15.078Z,2.28
2017-05-16T18:18:44.217Z,1.86
2017-05-16T18:21:13.288Z,2.28
2017-05-16T18:23:42.349Z,1.84
2017-05-16T18:26:11.618Z,2.00
2017-05-16T18:28:40.664Z,1.78
2017-05-16T18:31:09.782Z,1.80
2017-05-16T18:33:38.828Z,2.10
2017-05-16T18:36:08.125Z,1.70
2017-05-16T18:38:38.138Z,2.30
2017-05-16T18:41:07.208Z,2.00
2017-05-16T18:43:36.323Z,2.32
2017-05-16T18:46:05.438Z,1.78
2017-05-16T18:48:34.500Z,2.28
2017-05-16T18:51:04.351Z,2.46
2017-05-16T18:53:33.448Z,2.08
2017-05-16T18:56:02.687Z,2.02
2017-05-16T18:58:31.799Z,2.14
2017-05-16T19:01:00.848Z,2.18
2017-05-16T19:03:29.931Z,2.78
2017-05-16T19:05:59.007Z,2.40
2017-05-16T19:08:28.819Z,2.24
2017-05-16T19:10:58.656Z,2.42
2017-05-16T19:13:27.766Z,1.82
2017-05-16T19:15:56.837Z,2.42
2017-05-16T19:18:25.896Z,1.94
2017-05-16T19:20:55.176Z,2.22
2017-05-16T19:23:24.580Z,2.46
2017-05-16T19:25:54.570Z,2.64
2017-05-16T19:28:23.670Z,2.54
2017-05-16T19:30:53.362Z,2.70
2017-05-16T19:33:22.789Z,2.46
2017-05-16T19:35:52.061Z,2.90
2017-05-16T19:38:21.252Z,2.42
2017-05-16T19:40:50.335Z,2.32
2017-05-16T19:43:19.402Z,2.60
2017-05-16T19:45:48.605Z,2.82
2017-05-16T19:48:17.694Z,2.80
2017-05-16T19:50:46.752Z,2.60
2017-05-16T19:53:15.804Z,2.80
2017-05-16T19:55:45.644Z,2.26
2017-05-16T19:58:14.718Z,2.50
2017-05-16T20:00:44.517Z,2.78
2017-05-16T20:03:13.579Z,2.42
2017-05-16T20:05:42.792Z,2.58
2017-05-16T20:08:11.894Z,2.40
2017-05-16T20:10:40.981Z,2.34
2017-05-16T20:13:10.081Z,2.64
2017-05-16T20:15:39.143Z,2.48
2017-05-16T20:18:09.074Z,2.96
2017-05-16T20:20:38.335Z,2.20
2017-05-16T20:23:07.395Z,2.46
2017-05-16T20:25:36.451Z,2.56
2017-05-16T20:28:05.556Z,2.30
2017-05-16T20:30:34.609Z,2.20
2017-05-16T20:33:03.681Z,2.70
2017-05-16T20:35:33.541Z,2.74
2017-05-16T20:38:02.844Z,2.82
2017-05-16T20:40:31.918Z,2.54
2017-05-16T20:43:01.002Z,2.12
2017-05-16T20:45:30.963Z,2.16
2017-05-16T20:48:00.383Z,2.32
2017-05-16T20:50:29.437Z,1.94
2017-05-16T20:52:58.516Z,1.60
2017-05-16T20:55:27.585Z,2.56
2017-05-16T20:57:56.661Z,1.88
2017-05-16T21:00:25.749Z,2.48
2017-05-16T21:02:54.801Z,2.76
2017-05-16T21:05:23.939Z,2.22
2017-05-16T21:07:54.655Z,1.90
2017-05-16T21:10:24.341Z,2.88
2017-05-16T21:12:53.441Z,1.82
2017-05-16T21:15:22.516Z,2.68
2017-05-16T21:17:52.877Z,2.58
2017-05-16T21:20:22.033Z,2.68
2017-05-16T21:22:51.967Z,2.40
2017-05-16T21:25:21.789Z,2.98
2017-05-16T21:27:51.571Z,3.02
2017-05-16T21:30:21.394Z,2.80
2017-05-16T21:32:51.924Z,2.90
2017-05-16T21:35:21.725Z,3.52
2017-05-16T21:37:52.655Z,3.00
2017-05-16T21:40:21.738Z,3.18
2017-05-16T21:42:51.530Z,2.98
2017-05-16T21:45:20.631Z,2.76
2017-05-16T21:47:49.700Z,2.40
2017-05-16T21:50:19.937Z,3.12
2017-05-16T21:52:49.023Z,4.00
2017-05-16T21:55:18.075Z,3.28
2017-05-16T21:57:47.906Z,3.68
2017-05-16T22:00:17.337Z,3.34
2017-05-16T22:02:46.421Z,3.30
2017-05-16T22:05:15.606Z,3.02
2017-05-16T22:07:44.677Z,3.72
2017-05-16T22:10:13.750Z,3.12
2017-05-16T22:12:43.066Z,3.02
2017-05-16T22:15:12.626Z,3.32
2017-05-16T22:17:41.711Z,3.34
2017-05-16T22:20:10.809Z,3.40
2017-05-16T22:22:39.889Z,2.98
2017-05-16T22:25:09.045Z,2.80
2017-05-16T22:27:38.101Z,2.88
2017-05-16T22:30:07.163Z,3.18
2017-05-16T22:32:36.287Z,2.36
2017-05-16T22:35:05.506Z,2.90
2017-05-16T22:37:34.588Z,2.92
2017-05-16T22:40:03.656Z,2.72
2017-05-16T22:42:33.906Z,2.76
2017-05-16T22:45:03.004Z,2.58
2017-05-16T22:47:32.080Z,2.98
2017-05-16T22:50:01.136Z,3.16
2017-05-16T22:52:30.530Z,3.38
2017-05-16T22:54:59.916Z,2.74
2017-05-16T22:57:28.967Z,2.94
2017-05-16T22:59:58.430Z,2.60
2017-05-16T23:02:27.493Z,3.40
2017-05-16T23:04:57.707Z,3.20
2017-05-16T23:07:26.753Z,2.68
2017-05-16T23:09:55.836Z,2.92
2017-05-16T23:12:25.233Z,3.02
2017-05-16T23:14:54.297Z,2.72
2017-05-16T23:17:23.706Z,3.50
2017-05-16T23:19:53.296Z,3.08
2017-05-16T23:22:22.354Z,3.44
2017-05-16T23:24:51.930Z,3.10
2017-05-16T23:27:21.616Z,3.34
2017-05-16T23:29:50.689Z,2.98
2017-05-16T23:32:20.501Z,2.82
2017-05-16T23:34:50.295Z,3.30
2017-05-16T23:37:20.115Z,3.20
2017-05-16T23:39:49.912Z,3.36
2017-05-16T23:42:18.966Z,2.90
2017-05-16T23:44:48.104Z,3.20
2017-05-16T23:47:17.189Z,3.70
2017-05-16T23:49:46.290Z,3.48
2017-05-16T23:52:15.354Z,3.58
2017-05-16T23:54:44.411Z,3.20
2017-05-16T23:57:14.253Z,3.48
2017-05-16T23:59:43.317Z,3.30
